createdAt,value
2023-04-28T00:00:44.336Z,95207.00
2023-04-28T00:01:44.350Z,95209.00
2023-04-28T00:02:44.407Z,95209.00
2023-04-28T00:03:44.493Z,95207.00
2023-04-28T00:04:44.429Z,95205.00
2023-04-28T00:05:44.352Z,95205.00
2023-04-28T00:06:44.356Z,95205.00
2023-04-28T00:07:44.330Z,95203.00
2023-04-28T00:08:44.325Z,95205.00
2023-04-28T00:09:44.333Z,95199.00
2023-04-28T00:10:44.407Z,95201.00
2023-04-28T00:11:44.326Z,95195.00
2023-04-28T00:12:44.330Z,95197.00
2023-04-28T00:13:44.353Z,95197.00
2023-04-28T00:14:44.352Z,95195.00
2023-04-28T00:15:44.325Z,95197.00
2023-04-28T00:16:44.402Z,95195.00
2023-04-28T00:17:44.336Z,95195.00
2023-04-28T00:18:44.345Z,95193.00
2023-04-28T00:19:44.322Z,95195.00
2023-04-28T00:20:44.359Z,95191.00
2023-04-28T00:21:44.365Z,95193.00
2023-04-28T00:22:44.313Z,95191.00
2023-04-28T00:23:44.313Z,95191.00
2023-04-28T00:24:44.319Z,95195.00
2023-04-28T00:25:44.348Z,95197.00
2023-04-28T00:26:44.321Z,95199.00
2023-04-28T00:27:44.336Z,95203.00
2023-04-28T00:28:44.299Z,95193.00
2023-04-28T00:29:44.313Z,95199.00
2023-04-28T00:30:44.320Z,95197.00
2023-04-28T00:31:44.345Z,95199.00
2023-04-28T00:32:44.423Z,95197.00
2023-04-28T00:33:44.308Z,95199.00
2023-04-28T00:34:44.342Z,95201.00
2023-04-28T00:35:44.354Z,95203.00
2023-04-28T00:36:44.352Z,95201.00
2023-04-28T00:37:44.375Z,95201.00
2023-04-28T00:38:44.393Z,95205.00
2023-04-28T00:39:44.396Z,95203.00
2023-04-28T00:40:44.411Z,95203.00
2023-04-28T00:41:44.473Z,95201.00
2023-04-28T00:42:44.445Z,95201.00
2023-04-28T00:43:44.494Z,95201.00
2023-04-28T00:44:44.509Z,95199.00
2023-04-28T00:45:44.567Z,95199.00
2023-04-28T00:46:44.509Z,95201.00
2023-04-28T00:47:44.557Z,95197.00
2023-04-28T00:48:44.548Z,95197.00
2023-04-28T00:49:44.591Z,95201.00
2023-04-28T00:50:44.606Z,95201.00
2023-04-28T00:51:44.641Z,95201.00
2023-04-28T00:52:44.651Z,95199.00
2023-04-28T00:53:44.653Z,95197.00
2023-04-28T00:54:44.653Z,95199.00
2023-04-28T00:55:44.703Z,95195.00
2023-04-28T00:56:44.705Z,95197.00
2023-04-28T00:57:44.716Z,95197.00
2023-04-28T00:58:44.732Z,95197.00
2023-04-28T00:59:44.757Z,95197.00
2023-04-28T01:00:44.755Z,95195.00
2023-04-28T01:01:44.835Z,95195.00
2023-04-28T01:02:44.977Z,95195.00
2023-04-28T01:03:44.939Z,95193.00
2023-04-28T01:04:44.907Z,95193.00
2023-04-28T01:05:44.895Z,95189.00
2023-04-28T01:06:44.896Z,95185.00
2023-04-28T01:07:44.920Z,95183.00
2023-04-28T01:08:44.917Z,95185.00
2023-04-28T01:09:44.975Z,95181.00
2023-04-28T01:10:44.998Z,95181.00
2023-04-28T01:11:45.023Z,95181.00
2023-04-28T01:12:45.053Z,95181.00
2023-04-28T01:13:45.111Z,95181.00
2023-04-28T01:14:45.126Z,95173.00
2023-04-28T01:15:45.169Z,95175.00
2023-04-28T01:16:45.267Z,95169.00
2023-04-28T01:17:45.264Z,95171.00
2023-04-28T01:18:45.251Z,95171.00
2023-04-28T01:19:45.247Z,95173.00
2023-04-28T01:20:45.306Z,95173.00
2023-04-28T01:21:45.294Z,95175.00
2023-04-28T01:22:45.330Z,95171.00
2023-04-28T01:23:45.362Z,95173.00
2023-04-28T01:24:45.386Z,95173.00
2023-04-28T01:25:45.416Z,95169.00
2023-04-28T01:26:45.453Z,95169.00
2023-04-28T01:27:45.473Z,95171.00
2023-04-28T01:28:45.531Z,95169.00
2023-04-28T01:29:45.568Z,95171.00
2023-04-28T01:30:45.584Z,95167.00
2023-04-28T01:31:45.639Z,95167.00
2023-04-28T01:32:45.695Z,95164.00
2023-04-28T01:33:45.643Z,95166.00
2023-04-28T01:34:45.712Z,95167.00
2023-04-28T01:35:45.750Z,95169.00
2023-04-28T01:36:45.823Z,95169.00
2023-04-28T01:37:45.844Z,95169.00
2023-04-28T01:38:45.859Z,95169.00
2023-04-28T01:39:45.919Z,95164.00
2023-04-28T01:40:45.923Z,95166.00
2023-04-28T01:41:46.004Z,95166.00
2023-04-28T01:42:46.043Z,95166.00
2023-04-28T01:43:46.124Z,95164.00
2023-04-28T01:44:46.133Z,95166.00
2023-04-28T01:45:46.200Z,95164.00
2023-04-28T01:46:46.274Z,95164.00
2023-04-28T01:47:46.311Z,95166.00
2023-04-28T01:48:46.333Z,95166.00
2023-04-28T01:49:46.393Z,95166.00
2023-04-28T01:50:46.414Z,95164.00
2023-04-28T01:51:46.455Z,95166.00
2023-04-28T01:52:46.498Z,95166.00
2023-04-28T01:53:46.516Z,95164.00
2023-04-28T01:54:46.555Z,95164.00
2023-04-28T01:55:46.562Z,95162.00
2023-04-28T01:56:46.619Z,95164.00
2023-04-28T01:57:46.663Z,95160.00
2023-04-28T01:58:46.664Z,95158.00
2023-04-28T01:59:46.700Z,95158.00
2023-04-28T02:00:46.730Z,95162.00
2023-04-28T02:01:46.830Z,95164.00
2023-04-28T02:02:46.943Z,95167.00
2023-04-28T02:03:47.065Z,95167.00
2023-04-28T02:04:47.117Z,95166.00
2023-04-28T02:05:46.911Z,95169.00
2023-04-28T02:06:46.980Z,95166.00
2023-04-28T02:07:46.978Z,95167.00
2023-04-28T02:08:47.011Z,95167.00
2023-04-28T02:09:47.048Z,95167.00
2023-04-28T02:10:47.133Z,95167.00
2023-04-28T02:11:47.144Z,95167.00
2023-04-28T02:12:47.164Z,95167.00
2023-04-28T02:13:47.206Z,95167.00
2023-04-28T02:14:47.218Z,95166.00
2023-04-28T02:15:47.287Z,95160.00
2023-04-28T02:16:47.293Z,95158.00
2023-04-28T02:17:47.377Z,95154.00
2023-04-28T02:18:47.393Z,95158.00
2023-04-28T02:19:47.437Z,95158.00
2023-04-28T02:20:47.466Z,95156.00
2023-04-28T02:21:47.502Z,95158.00
2023-04-28T02:22:47.539Z,95156.00
2023-04-28T02:23:47.575Z,95156.00
2023-04-28T02:24:47.602Z,95156.00
2023-04-28T02:25:47.627Z,95154.00
2023-04-28T02:26:47.680Z,95152.00
2023-04-28T02:27:47.705Z,95144.00
2023-04-28T02:28:47.746Z,95142.00
2023-04-28T02:29:47.788Z,95144.00
2023-04-28T02:30:47.829Z,95152.00
2023-04-28T02:31:47.970Z,95144.00
2023-04-28T02:32:47.980Z,95142.00
2023-04-28T02:33:47.995Z,95138.00
2023-04-28T02:34:48.036Z,95140.00
2023-04-28T02:35:48.075Z,95136.00
2023-04-28T02:36:48.177Z,95136.00
2023-04-28T02:37:48.199Z,95140.00
2023-04-28T02:38:48.239Z,95142.00
2023-04-28T02:39:48.308Z,95138.00
2023-04-28T02:40:48.374Z,95138.00
2023-04-28T02:41:48.381Z,95136.00
2023-04-28T02:42:48.444Z,95132.00
2023-04-28T02:43:48.499Z,95132.00
2023-04-28T02:44:48.577Z,95132.00
2023-04-28T02:45:48.610Z,95132.00
2023-04-28T02:46:48.733Z,95132.00
2023-04-28T02:47:48.724Z,95132.00
2023-04-28T02:48:48.788Z,95132.00
2023-04-28T02:49:48.837Z,95136.00
2023-04-28T02:50:48.871Z,95132.00
2023-04-28T02:51:48.925Z,95132.00
2023-04-28T02:52:49.247Z,95130.00
2023-04-28T02:53:49.032Z,95130.00
2023-04-28T02:54:49.217Z,95124.00
2023-04-28T02:55:49.188Z,95122.00
2023-04-28T02:56:49.200Z,95120.00
2023-04-28T02:57:49.290Z,95116.00
2023-04-28T02:58:49.371Z,95114.00
2023-04-28T02:59:49.328Z,95111.00
2023-04-28T03:00:49.428Z,95111.00
2023-04-28T03:01:49.356Z,95109.00
2023-04-28T03:02:49.417Z,95107.00
2023-04-28T03:03:49.411Z,95103.00
2023-04-28T03:04:49.439Z,95103.00
2023-04-28T03:05:49.351Z,95103.00
2023-04-28T03:06:49.339Z,95101.00
2023-04-28T03:07:49.336Z,95097.00
2023-04-28T03:08:49.364Z,95097.00
2023-04-28T03:09:49.363Z,95099.00
2023-04-28T03:10:49.384Z,95099.00
2023-04-28T03:11:49.371Z,95099.00
2023-04-28T03:12:49.390Z,95101.00
2023-04-28T03:13:49.409Z,95101.00
2023-04-28T03:14:49.416Z,95099.00
2023-04-28T03:15:49.407Z,95101.00
2023-04-28T03:16:49.586Z,95101.00
2023-04-28T03:17:49.478Z,95101.00
2023-04-28T03:18:49.537Z,95095.00
2023-04-28T03:19:49.597Z,95093.00
2023-04-28T03:20:49.655Z,95091.00
2023-04-28T03:21:49.713Z,95087.00
2023-04-28T03:22:49.767Z,95085.00
2023-04-28T03:23:49.821Z,95085.00
2023-04-28T03:24:49.872Z,95085.00
2023-04-28T03:25:49.939Z,95083.00
2023-04-28T03:26:49.984Z,95079.00
2023-04-28T03:27:50.037Z,95079.00
2023-04-28T03:28:50.091Z,95081.00
2023-04-28T03:29:50.138Z,95081.00
2023-04-28T03:30:50.232Z,95083.00
2023-04-28T03:31:50.278Z,95083.00
2023-04-28T03:32:50.402Z,95083.00
2023-04-28T03:33:50.400Z,95085.00
2023-04-28T03:34:50.435Z,95081.00
2023-04-28T03:35:50.485Z,95085.00
2023-04-28T03:36:50.524Z,95085.00
2023-04-28T03:37:50.550Z,95083.00
2023-04-28T03:38:50.639Z,95081.00
2023-04-28T03:39:50.690Z,95081.00
2023-04-28T03:40:50.647Z,95085.00
2023-04-28T03:41:50.711Z,95085.00
2023-04-28T03:42:50.730Z,95087.00
2023-04-28T03:43:50.776Z,95087.00
2023-04-28T03:44:50.819Z,95089.00
2023-04-28T03:45:50.901Z,95085.00
2023-04-28T03:46:50.947Z,95087.00
2023-04-28T03:47:50.996Z,95089.00
2023-04-28T03:48:51.048Z,95089.00
2023-04-28T03:49:51.091Z,95089.00
2023-04-28T03:50:51.163Z,95089.00
2023-04-28T03:51:51.200Z,95091.00
2023-04-28T03:52:51.265Z,95091.00
2023-04-28T03:53:51.326Z,95091.00
2023-04-28T03:54:51.363Z,95093.00
2023-04-28T03:55:51.442Z,95091.00
2023-04-28T03:56:51.525Z,95091.00
2023-04-28T03:57:51.553Z,95087.00
2023-04-28T03:58:51.600Z,95089.00
2023-04-28T03:59:51.669Z,95089.00
2023-04-28T04:00:51.698Z,95087.00
2023-04-28T04:01:51.710Z,95087.00
2023-04-28T04:02:52.462Z,95089.00
2023-04-28T04:03:51.962Z,95087.00
2023-04-28T04:04:52.139Z,95085.00
2023-04-28T04:05:51.963Z,95085.00
2023-04-28T04:06:51.953Z,95079.00
2023-04-28T04:07:51.939Z,95083.00
2023-04-28T04:08:51.983Z,95087.00
2023-04-28T04:09:51.994Z,95083.00
2023-04-28T04:10:52.031Z,95085.00
2023-04-28T04:11:52.092Z,95085.00
2023-04-28T04:12:52.124Z,95081.00
2023-04-28T04:13:52.165Z,95081.00
2023-04-28T04:14:52.179Z,95077.00
2023-04-28T04:15:52.287Z,95077.00
2023-04-28T04:16:52.193Z,95077.00
2023-04-28T04:17:52.243Z,95079.00
2023-04-28T04:18:52.253Z,95079.00
2023-04-28T04:19:52.177Z,95081.00
2023-04-28T04:20:52.181Z,95079.00
2023-04-28T04:21:52.237Z,95079.00
2023-04-28T04:22:52.225Z,95077.00
2023-04-28T04:23:52.256Z,95081.00
2023-04-28T04:24:52.271Z,95083.00
2023-04-28T04:25:52.285Z,95083.00
2023-04-28T04:26:52.328Z,95083.00
2023-04-28T04:27:52.316Z,95083.00
2023-04-28T04:28:52.321Z,95081.00
2023-04-28T04:29:52.309Z,95083.00
2023-04-28T04:30:52.875Z,95087.00
2023-04-28T04:31:52.391Z,95087.00
2023-04-28T04:32:52.410Z,95085.00
2023-04-28T04:33:52.333Z,95087.00
2023-04-28T04:34:52.341Z,95087.00
2023-04-28T04:35:52.325Z,95087.00
2023-04-28T04:36:52.326Z,95087.00
2023-04-28T04:37:52.412Z,95087.00
2023-04-28T04:38:54.365Z,95091.00
2023-04-28T04:39:52.353Z,95087.00
2023-04-28T04:40:52.364Z,95089.00
2023-04-28T04:41:52.351Z,95087.00
2023-04-28T04:42:52.375Z,95087.00
2023-04-28T04:43:52.344Z,95091.00
2023-04-28T04:44:52.351Z,95091.00
2023-04-28T04:45:52.370Z,95091.00
2023-04-28T04:46:52.440Z,95093.00
2023-04-28T04:47:52.389Z,95093.00
2023-04-28T04:48:52.369Z,95093.00
2023-04-28T04:49:52.403Z,95093.00
2023-04-28T04:50:52.443Z,95095.00
2023-04-28T04:51:52.366Z,95091.00
2023-04-28T04:52:52.393Z,95093.00
2023-04-28T04:53:52.400Z,95091.00
2023-04-28T04:54:52.385Z,95093.00
2023-04-28T04:55:52.357Z,95089.00
2023-04-28T04:56:52.392Z,95091.00
2023-04-28T04:57:52.372Z,95087.00
2023-04-28T04:58:52.384Z,95091.00
2023-04-28T04:59:52.381Z,95091.00
2023-04-28T05:00:52.395Z,95093.00
2023-04-28T05:01:52.442Z,95095.00
2023-04-28T05:02:52.452Z,95097.00
2023-04-28T05:03:52.491Z,95099.00
2023-04-28T05:04:53.388Z,95101.00
2023-04-28T05:05:52.368Z,95103.00
2023-04-28T05:06:52.391Z,95103.00
2023-04-28T05:07:52.401Z,95105.00
2023-04-28T05:08:52.398Z,95101.00
2023-04-28T05:09:52.375Z,95101.00
2023-04-28T05:10:52.354Z,95107.00
2023-04-28T05:11:52.365Z,95111.00
2023-04-28T05:12:52.865Z,95113.00
2023-04-28T05:13:52.412Z,95111.00
2023-04-28T05:14:52.374Z,95113.00
2023-04-28T05:15:52.372Z,95113.00
2023-04-28T05:16:52.454Z,95114.00
2023-04-28T05:17:52.423Z,95116.00
2023-04-28T05:18:52.379Z,95118.00
2023-04-28T05:19:52.430Z,95120.00
2023-04-28T05:20:52.380Z,95124.00
2023-04-28T05:21:52.382Z,95126.00
2023-04-28T05:22:52.385Z,95128.00
2023-04-28T05:23:52.401Z,95128.00
2023-04-28T05:24:52.379Z,95130.00
2023-04-28T05:25:52.376Z,95132.00
2023-04-28T05:26:52.385Z,95128.00
2023-04-28T05:27:52.391Z,95124.00
2023-04-28T05:28:52.383Z,95124.00
2023-04-28T05:29:52.389Z,95126.00
2023-04-28T05:30:52.416Z,95126.00
2023-04-28T05:31:53.390Z,95126.00
2023-04-28T05:32:52.561Z,95128.00
2023-04-28T05:33:52.527Z,95128.00
2023-04-28T05:34:52.627Z,95124.00
2023-04-28T05:35:52.637Z,95120.00
2023-04-28T05:36:52.737Z,95126.00
2023-04-28T05:37:52.662Z,95126.00
2023-04-28T05:38:52.691Z,95130.00
2023-04-28T05:39:52.761Z,95130.00
2023-04-28T05:40:52.811Z,95130.00
2023-04-28T05:41:52.877Z,95132.00
2023-04-28T05:42:52.901Z,95132.00
2023-04-28T05:43:52.889Z,95142.00
2023-04-28T05:44:52.918Z,95140.00
2023-04-28T05:45:52.927Z,95142.00
2023-04-28T05:46:53.073Z,95154.00
2023-04-28T05:47:53.390Z,95154.00
2023-04-28T05:48:53.019Z,95144.00
2023-04-28T05:49:53.084Z,95158.00
2023-04-28T05:50:53.129Z,95154.00
2023-04-28T05:51:53.138Z,95156.00
2023-04-28T05:52:53.127Z,95156.00
2023-04-28T05:53:53.189Z,95158.00
2023-04-28T05:54:53.386Z,95160.00
2023-04-28T05:55:53.232Z,95158.00
2023-04-28T05:56:53.272Z,95162.00
2023-04-28T05:57:53.684Z,95169.00
2023-04-28T05:58:53.346Z,95166.00
2023-04-28T05:59:53.310Z,95169.00
2023-04-28T06:00:53.359Z,95171.00
2023-04-28T06:01:53.387Z,95169.00
2023-04-28T06:02:53.638Z,95167.00
2023-04-28T06:03:53.719Z,95171.00
2023-04-28T06:04:53.635Z,95171.00
2023-04-28T06:05:53.636Z,95175.00
2023-04-28T06:06:53.602Z,95173.00
2023-04-28T06:07:55.089Z,95177.00
2023-04-28T06:08:53.655Z,95175.00
2023-04-28T06:09:53.683Z,95179.00
2023-04-28T06:10:53.671Z,95185.00
2023-04-28T06:11:53.713Z,95179.00
2023-04-28T06:12:53.703Z,95181.00
2023-04-28T06:13:53.728Z,95183.00
2023-04-28T06:14:53.712Z,95185.00
2023-04-28T06:15:53.777Z,95187.00
2023-04-28T06:16:53.752Z,95189.00
2023-04-28T06:17:53.779Z,95193.00
2023-04-28T06:18:53.805Z,95195.00
2023-04-28T06:19:53.866Z,95197.00
2023-04-28T06:20:53.910Z,95197.00
2023-04-28T06:21:53.946Z,95201.00
2023-04-28T06:22:54.003Z,95201.00
2023-04-28T06:23:54.024Z,95201.00
2023-04-28T06:24:54.022Z,95207.00
2023-04-28T06:25:54.076Z,95207.00
2023-04-28T06:26:54.080Z,95209.00
2023-04-28T06:27:54.115Z,95209.00
2023-04-28T06:28:54.120Z,95209.00
2023-04-28T06:29:54.127Z,95207.00
2023-04-28T06:30:54.137Z,95207.00
2023-04-28T06:31:54.161Z,95207.00
2023-04-28T06:32:54.138Z,95209.00
2023-04-28T06:33:54.120Z,95211.00
2023-04-28T06:34:54.127Z,95211.00
2023-04-28T06:35:54.113Z,95213.00
2023-04-28T06:36:54.164Z,95213.00
2023-04-28T06:37:54.203Z,95214.00
2023-04-28T06:38:54.245Z,95216.00
2023-04-28T06:39:54.305Z,95214.00
2023-04-28T06:40:54.364Z,95214.00
2023-04-28T06:41:54.450Z,95216.00
2023-04-28T06:42:54.584Z,95216.00
2023-04-28T06:43:54.546Z,95216.00
2023-04-28T06:44:54.634Z,95213.00
2023-04-28T06:45:54.658Z,95216.00
2023-04-28T06:46:54.797Z,95213.00
2023-04-28T06:47:54.927Z,95222.00
2023-04-28T06:48:54.846Z,95220.00
2023-04-28T06:49:54.877Z,95220.00
2023-04-28T06:50:54.939Z,95218.00
2023-04-28T06:51:55.011Z,95220.00
2023-04-28T06:52:55.004Z,95218.00
2023-04-28T06:53:55.083Z,95218.00
2023-04-28T06:54:55.024Z,95220.00
2023-04-28T06:55:55.083Z,95218.00
2023-04-28T06:56:55.155Z,95220.00
2023-04-28T06:57:55.402Z,95220.00
2023-04-28T06:58:55.242Z,95222.00
2023-04-28T06:59:55.249Z,95220.00
2023-04-28T07:00:55.284Z,95220.00
2023-04-28T07:01:55.349Z,95214.00
2023-04-28T07:02:55.484Z,95214.00
2023-04-28T07:03:55.447Z,95214.00
2023-04-28T07:04:55.417Z,95211.00
2023-04-28T07:05:55.440Z,95211.00
2023-04-28T07:06:55.512Z,95209.00
2023-04-28T07:07:55.550Z,95211.00
2023-04-28T07:08:55.601Z,95207.00
2023-04-28T07:09:55.671Z,95207.00
2023-04-28T07:10:55.722Z,95207.00
2023-04-28T07:11:55.768Z,95207.00
2023-04-28T07:12:56.774Z,95205.00
2023-04-28T07:13:55.772Z,95203.00
2023-04-28T07:14:55.756Z,95207.00
2023-04-28T07:15:55.767Z,95203.00
2023-04-28T07:16:55.826Z,95203.00
2023-04-28T07:17:55.780Z,95203.00
2023-04-28T07:18:55.724Z,95203.00
2023-04-28T07:19:55.717Z,95205.00
2023-04-28T07:20:55.770Z,95203.00
2023-04-28T07:21:55.800Z,95205.00
2023-04-28T07:22:55.867Z,95205.00
2023-04-28T07:23:55.916Z,95201.00
2023-04-28T07:24:55.956Z,95201.00
2023-04-28T07:25:56.028Z,95199.00
2023-04-28T07:26:56.085Z,95199.00
2023-04-28T07:27:56.148Z,95201.00
2023-04-28T07:28:56.215Z,95199.00
2023-04-28T07:29:56.271Z,95199.00
2023-04-28T07:30:56.359Z,95199.00
2023-04-28T07:31:56.458Z,95201.00
2023-04-28T07:32:56.654Z,95201.00
2023-04-28T07:33:56.473Z,95201.00
2023-04-28T07:34:56.532Z,95205.00
2023-04-28T07:35:56.564Z,95199.00
2023-04-28T07:36:56.634Z,95203.00
2023-04-28T07:37:56.928Z,95203.00
2023-04-28T07:38:57.026Z,95205.00
2023-04-28T07:39:56.822Z,95203.00
2023-04-28T07:40:56.851Z,95207.00
2023-04-28T07:41:56.911Z,95203.00
2023-04-28T07:42:57.458Z,95203.00
2023-04-28T07:43:56.959Z,95201.00
2023-04-28T07:45:44.917Z,95203.00
2023-04-28T07:46:44.680Z,95205.00
2023-04-28T07:47:44.908Z,95207.00
2023-04-28T07:48:44.657Z,95211.00
2023-04-28T07:49:44.642Z,95213.00
2023-04-28T07:50:44.651Z,95207.00
2023-04-28T07:51:44.626Z,95211.00
2023-04-28T07:52:44.604Z,95213.00
2023-04-28T07:53:44.606Z,95214.00
2023-04-28T07:54:44.602Z,95216.00
2023-04-28T07:55:44.575Z,95213.00
2023-04-28T07:56:44.595Z,95214.00
2023-04-28T07:57:44.597Z,95209.00
2023-04-28T07:58:44.555Z,95213.00
2023-04-28T07:59:44.583Z,95211.00
2023-04-28T08:00:44.561Z,95211.00
2023-04-28T08:01:44.530Z,95213.00
2023-04-28T08:02:44.662Z,95213.00
2023-04-28T08:03:44.734Z,95213.00
2023-04-28T08:04:44.702Z,95213.00
2023-04-28T08:05:44.616Z,95216.00
2023-04-28T08:06:44.501Z,95213.00
2023-04-28T08:07:44.519Z,95214.00
2023-04-28T08:08:44.506Z,95214.00
2023-04-28T08:09:44.503Z,95216.00
2023-04-28T08:10:44.474Z,95214.00
2023-04-28T08:11:44.468Z,95216.00
2023-04-28T08:12:44.486Z,95216.00
2023-04-28T08:13:44.467Z,95216.00
2023-04-28T08:14:44.475Z,95218.00
2023-04-28T08:15:44.486Z,95220.00
2023-04-28T08:16:44.470Z,95218.00
2023-04-28T08:17:44.444Z,95220.00
2023-04-28T08:18:44.469Z,95218.00
2023-04-28T08:19:44.433Z,95220.00
2023-04-28T08:20:44.419Z,95222.00
2023-04-28T08:21:44.412Z,95224.00
2023-04-28T08:22:44.403Z,95226.00
2023-04-28T08:23:44.383Z,95224.00
2023-04-28T08:24:44.404Z,95224.00
2023-04-28T08:25:44.430Z,95230.00
2023-04-28T08:26:44.383Z,95230.00
2023-04-28T08:27:44.355Z,95228.00
2023-04-28T08:28:44.376Z,95232.00
2023-04-28T08:29:44.371Z,95228.00
2023-04-28T08:30:44.336Z,95230.00
2023-04-28T08:31:44.430Z,95232.00
2023-04-28T08:32:44.316Z,95236.00
2023-04-28T08:33:44.448Z,95236.00
2023-04-28T08:34:44.345Z,95234.00
2023-04-28T08:35:44.346Z,95234.00
2023-04-28T08:36:44.283Z,95234.00
2023-04-28T08:37:44.339Z,95234.00
2023-04-28T08:38:44.306Z,95234.00
2023-04-28T08:39:44.298Z,95238.00
2023-04-28T08:40:44.283Z,95236.00
2023-04-28T08:41:44.294Z,95234.00
2023-04-28T08:42:44.289Z,95234.00
2023-04-28T08:43:44.276Z,95230.00
2023-04-28T08:44:44.246Z,95230.00
2023-04-28T08:45:44.260Z,95232.00
2023-04-28T08:46:44.283Z,95232.00
2023-04-28T08:47:44.315Z,95228.00
2023-04-28T08:48:44.219Z,95232.00
2023-04-28T08:49:44.240Z,95230.00
2023-04-28T08:50:44.193Z,95228.00
2023-04-28T08:51:44.225Z,95226.00
2023-04-28T08:52:44.210Z,95228.00
2023-04-28T08:54:11.744Z,95226.00
2023-04-28T08:54:45.199Z,95224.00
2023-04-28T08:55:44.165Z,95222.00
2023-04-28T08:56:44.195Z,95224.00
2023-04-28T08:57:44.184Z,95224.00
2023-04-28T08:58:44.371Z,95224.00
2023-04-28T08:59:44.160Z,95222.00
2023-04-28T09:00:44.142Z,95222.00
2023-04-28T09:01:44.159Z,95220.00
2023-04-28T09:02:44.329Z,95226.00
2023-04-28T09:03:44.271Z,95224.00
2023-04-28T09:04:44.280Z,95224.00
2023-04-28T09:05:44.262Z,95224.00
2023-04-28T09:06:44.166Z,95226.00
2023-04-28T09:07:44.121Z,95224.00
2023-04-28T09:08:44.162Z,95224.00
2023-04-28T09:09:44.106Z,95224.00
2023-04-28T09:10:44.108Z,95226.00
2023-04-28T09:11:44.103Z,95228.00
2023-04-28T09:12:44.050Z,95226.00
2023-04-28T09:13:44.062Z,95228.00
2023-04-28T09:14:44.052Z,95228.00
2023-04-28T09:15:44.107Z,95230.00
2023-04-28T09:16:44.078Z,95228.00
2023-04-28T09:17:44.054Z,95228.00
2023-04-28T09:18:44.075Z,95228.00
2023-04-28T09:19:44.029Z,95230.00
2023-04-28T09:20:44.021Z,95224.00
2023-04-28T09:21:44.006Z,95226.00
2023-04-28T09:22:44.158Z,95226.00
2023-04-28T09:23:44.019Z,95220.00
2023-04-28T09:24:44.029Z,95222.00
2023-04-28T09:25:44.040Z,95218.00
2023-04-28T09:26:44.078Z,95216.00
2023-04-28T09:27:44.060Z,95220.00
2023-04-28T09:28:44.099Z,95216.00
2023-04-28T09:29:44.118Z,95214.00
2023-04-28T09:30:44.139Z,95214.00
2023-04-28T09:31:44.178Z,95214.00
2023-04-28T09:32:44.163Z,95218.00
2023-04-28T09:33:44.208Z,95218.00
2023-04-28T09:34:44.212Z,95216.00
2023-04-28T09:35:44.194Z,95220.00
2023-04-28T09:36:44.241Z,95218.00
2023-04-28T09:37:44.268Z,95218.00
2023-04-28T09:38:44.405Z,95214.00
2023-04-28T09:39:44.281Z,95222.00
2023-04-28T09:40:44.297Z,95214.00
2023-04-28T09:41:44.347Z,95209.00
2023-04-28T09:42:44.432Z,95211.00
2023-04-28T09:43:44.389Z,95211.00
2023-04-28T09:44:44.402Z,95214.00
2023-04-28T09:45:44.425Z,95211.00
2023-04-28T09:46:44.438Z,95213.00
2023-04-28T09:47:44.504Z,95214.00
2023-04-28T09:48:44.909Z,95214.00
2023-04-28T09:49:44.533Z,95218.00
2023-04-28T09:50:44.575Z,95218.00
2023-04-28T09:51:44.637Z,95216.00
2023-04-28T09:52:44.692Z,95214.00
2023-04-28T09:53:44.730Z,95216.00
2023-04-28T09:54:44.776Z,95216.00
2023-04-28T09:55:44.796Z,95218.00
2023-04-28T09:56:44.839Z,95220.00
2023-04-28T09:57:44.853Z,95216.00
2023-04-28T09:58:44.862Z,95216.00
2023-04-28T09:59:44.810Z,95220.00
2023-04-28T10:00:44.839Z,95220.00
2023-04-28T10:01:44.913Z,95220.00
2023-04-28T10:02:45.044Z,95220.00
2023-04-28T10:03:45.040Z,95222.00
2023-04-28T10:04:45.160Z,95220.00
2023-04-28T10:05:44.944Z,95222.00
2023-04-28T10:06:44.916Z,95222.00
2023-04-28T10:07:44.913Z,95224.00
2023-04-28T10:08:44.940Z,95220.00
2023-04-28T10:09:44.922Z,95224.00
2023-04-28T10:10:44.918Z,95220.00
2023-04-28T10:11:44.914Z,95218.00
2023-04-28T10:12:44.943Z,95216.00
2023-04-28T10:13:44.909Z,95216.00
2023-04-28T10:14:45.790Z,95214.00
2023-04-28T10:15:44.944Z,95209.00
2023-04-28T10:16:44.914Z,95211.00
2023-04-28T10:17:44.973Z,95211.00
2023-04-28T10:18:44.880Z,95211.00
2023-04-28T10:19:44.985Z,95213.00
2023-04-28T10:20:44.928Z,95213.00
2023-04-28T10:21:45.299Z,95209.00
2023-04-28T10:22:44.888Z,95209.00
2023-04-28T10:23:44.904Z,95205.00
2023-04-28T10:24:44.888Z,95205.00
2023-04-28T10:25:44.930Z,95209.00
2023-04-28T10:26:44.993Z,95211.00
2023-04-28T10:27:44.939Z,95211.00
2023-04-28T10:28:44.916Z,95205.00
2023-04-28T10:29:44.917Z,95207.00
2023-04-28T10:30:44.946Z,95207.00
2023-04-28T10:31:45.054Z,95205.00
2023-04-28T10:32:45.066Z,95201.00
2023-04-28T10:33:45.040Z,95209.00
2023-04-28T10:34:45.017Z,95205.00
2023-04-28T10:35:45.047Z,95207.00
2023-04-28T10:36:45.070Z,95203.00
2023-04-28T10:37:45.091Z,95207.00
2023-04-28T10:38:45.435Z,95201.00
2023-04-28T10:39:45.216Z,95193.00
2023-04-28T10:40:45.281Z,95193.00
2023-04-28T10:41:45.326Z,95191.00
2023-04-28T10:42:45.360Z,95195.00
2023-04-28T10:43:45.438Z,95197.00
2023-04-28T10:44:45.455Z,95197.00
2023-04-28T10:45:45.498Z,95195.00
2023-04-28T10:46:45.536Z,95195.00
2023-04-28T10:47:45.668Z,95191.00
2023-04-28T10:48:45.671Z,95187.00
2023-04-28T10:49:45.693Z,95187.00
2023-04-28T10:50:45.777Z,95185.00
2023-04-28T10:51:45.797Z,95183.00
2023-04-28T10:52:45.832Z,95185.00
2023-04-28T10:53:46.797Z,95181.00
2023-04-28T10:54:45.938Z,95185.00
2023-04-28T10:55:45.989Z,95187.00
2023-04-28T10:56:46.051Z,95183.00
2023-04-28T10:57:46.092Z,95185.00
2023-04-28T10:58:46.209Z,95179.00
2023-04-28T10:59:46.224Z,95179.00
2023-04-28T11:00:46.216Z,95179.00
2023-04-28T11:01:46.365Z,95177.00
2023-04-28T11:02:46.412Z,95179.00
2023-04-28T11:03:46.614Z,95181.00
2023-04-28T11:04:46.651Z,95181.00
2023-04-28T11:05:46.426Z,95177.00
2023-04-28T11:06:46.517Z,95181.00
2023-04-28T11:07:46.552Z,95179.00
2023-04-28T11:08:46.586Z,95179.00
2023-04-28T11:09:46.616Z,95181.00
2023-04-28T11:10:46.654Z,95179.00
2023-04-28T11:11:46.681Z,95179.00
2023-04-28T11:12:46.719Z,95177.00
2023-04-28T11:13:46.777Z,95173.00
2023-04-28T11:14:46.816Z,95175.00
2023-04-28T11:15:46.873Z,95169.00
2023-04-28T11:16:46.942Z,95169.00
2023-04-28T11:17:46.994Z,95164.00
2023-04-28T11:18:47.020Z,95166.00
2023-04-28T11:19:47.030Z,95162.00
2023-04-28T11:20:47.131Z,95160.00
2023-04-28T11:21:47.191Z,95156.00
2023-04-28T11:22:47.232Z,95158.00
2023-04-28T11:23:47.312Z,95156.00
2023-04-28T11:24:47.380Z,95154.00
2023-04-28T11:25:47.422Z,95152.00
2023-04-28T11:26:47.464Z,95140.00
2023-04-28T11:27:47.546Z,95144.00
2023-04-28T11:28:47.616Z,95142.00
2023-04-28T11:29:47.610Z,95142.00
2023-04-28T11:30:47.740Z,95142.00
2023-04-28T11:31:47.768Z,95142.00
2023-04-28T11:32:48.023Z,95140.00
2023-04-28T11:33:47.971Z,95132.00
2023-04-28T11:34:47.787Z,95130.00
2023-04-28T11:35:47.770Z,95128.00
2023-04-28T11:36:47.809Z,95134.00
2023-04-28T11:37:47.805Z,95128.00
2023-04-28T11:38:47.993Z,95126.00
2023-04-28T11:39:47.825Z,95124.00
2023-04-28T11:40:47.876Z,95124.00
2023-04-28T11:41:47.941Z,95128.00
2023-04-28T11:42:48.045Z,95136.00
2023-04-28T11:43:48.027Z,95138.00
2023-04-28T11:44:48.104Z,95152.00
2023-04-28T11:45:48.187Z,95144.00